Cross City, FL (32628)

2:27 PM EDT on August 03, 2015 (GMT -0400)
Old Town | | Change Station
CLOSE
Current Station
Personal Weather Station
Location: Old Town, FL
Elevation: 46 ft
Nearby Weather Stations

Elev 46 ft 29.50 °N, 83.02 °W | Updated 3 minutes ago

Mostly Cloudy
Mostly Cloudy
86.7 °F
Feels Like 101 °F
N
1.0
Wind Variable Wind from NE
Gusts 6.0 mph

Today
High -- | Low -- °F
--% Chance of Precip.
Yesterday
High -- | Low -- °F
Precip. -- in
6:53 AM 8:23 PM
Waning Gibbous, 85% visible
Pressure 29.90 in
Visibility 10.0 miles
Clouds Scattered Clouds 3400 ft
Mostly Cloudy 4200 ft
Mostly Cloudy 4900 ft
Heat Index 101 °F
Dew Point 80 °F
Humidity 79%
Rainfall 0.00 in
Snow Depth Not available.
UV 8 out of 12
Pollen 3.70 out of 12
Air Quality Not available.
Flu Activity Not available.
METAR K40J 031815Z AUTO 33003KT 10SM SCT034 BKN042 BKN049 31/23 A2990 RMK AO2 T03110228

More Conditions Fewer Conditions

Pressure 29.90 in
Visibility 10.0 miles
Clouds Scattered Clouds 3400 ft
Mostly Cloudy 4200 ft
Mostly Cloudy 4900 ft
Heat Index 101 °F
Dew Point 80 °F
Humidity 79%
Rainfall 0.00 in
Snow Depth Not available.
UV 8 out of 12
Pollen 3.70 out of 12
Air Quality Not available.
Flu Activity Not available.
METAR K40J 031815Z AUTO 33003KT 10SM SCT034 BKN042 BKN049 31/23 A2990 RMK AO2 T03110228

More Conditions Fewer Conditions

10-Day Weather Forecast

×

Almanac

Astronomy

Aug. 03, 2015 Rise Set
Actual Time
Civil Twilight
Nautical Twilight
Astronomical Twilight
Moon
Length of Visible Light
Length of Day
Tomorrow will be .
, % of the Moon is Illuminated

Today's Extremes

State Highs State Lows

Community

WunderPhotos

Upload Photos

1,843,697 photos uploaded!

WunderBlogs® & News

Nearby

Air Quality

  Air Quality AQ Index Pollutant
Not available.

Snow Depth

Station Depth Elevation

Earthquake Activity

City Distance Mag. Time & Date
Minimum magnitude displayed is 2.5.

Coastal Water Temperatures

Place Temperature

Stations

Nearby Weather Stations

Station Location Temp. Windchill Dew Point Humidity Wind Precip. Elev Updated Type
                   
Flood Warning
Statement as of 9:59 AM EDT on August 03, 2015

The Flood Warning continues for
the Steinhatchee River near Steinhatchee (us 19).
* Until further notice.
* At 8:45 am Monday the stage was 15.6 feet.
* Minor flooding is occurring and will continue.
* Flood stage is 12.2 feet.
* Forecast: the river will crest this morning near 15.7 feet and then
begin to slowly fall.
* Impact: at 15.7 feet: water has flooded all of River Road NE and
Ancient Oaks private roads up to 3 feet deep in some areas. All
houses and Mobile homes now have water flowing underneath. Water is
also flooding property and is under some houses on cooey island
near Palm street NE.


Lat... Lon 2982 8335 2973 8337 2968 8343 2964 8340 2967 8333 2982 8328